createdAt,value
2022-11-26T00:01:21.725Z,11.07
2022-11-26T00:03:52.136Z,10.80
2022-11-26T00:06:30.449Z,14.67
2022-11-26T00:09:00.200Z,13.30
2022-11-26T00:11:29.855Z,11.30
2022-11-26T00:13:58.011Z,11.37
2022-11-26T00:16:26.227Z,13.50
2022-11-26T00:18:54.385Z,12.03
2022-11-26T00:21:24.900Z,10.37
2022-11-26T00:23:54.665Z,21.50
2022-11-26T00:26:25.545Z,11.53
2022-11-26T00:28:57.958Z,13.80
2022-11-26T00:31:26.321Z,10.63
2022-11-26T00:33:54.571Z,7.53
2022-11-26T00:36:25.785Z,11.80
2022-11-26T00:38:57.864Z,7.83
2022-11-26T00:41:30.263Z,13.57
2022-11-26T00:43:59.933Z,11.60
2022-11-26T00:46:28.416Z,13.47
2022-11-26T00:48:56.806Z,11.90
2022-11-26T00:51:27.438Z,13.40
2022-11-26T00:53:57.743Z,11.50
2022-11-26T00:56:26.465Z,12.93
2022-11-26T00:58:54.630Z,10.37
2022-11-26T01:01:26.322Z,11.13
2022-11-26T01:03:54.629Z,9.20
2022-11-26T01:06:25.085Z,22.10
2022-11-26T01:08:53.542Z,14.63
2022-11-26T01:11:24.299Z,14.03
2022-11-26T01:13:54.584Z,14.20
2022-11-26T01:16:27.337Z,14.37
2022-11-26T01:18:57.493Z,13.50
2022-11-26T01:21:33.343Z,17.73
2022-11-26T01:24:01.469Z,11.00
2022-11-26T01:26:34.965Z,11.47
2022-11-26T01:29:03.113Z,11.53
2022-11-26T01:31:33.162Z,12.67
2022-11-26T01:34:01.452Z,10.47
2022-11-26T01:36:31.040Z,11.07
2022-11-26T01:39:04.734Z,14.73
2022-11-26T01:41:45.561Z,8.50
2022-11-26T01:44:19.057Z,15.63
2022-11-26T01:46:49.864Z,12.57
2022-11-26T01:49:20.287Z,15.27
2022-11-26T01:51:52.066Z,10.70
2022-11-26T01:54:20.300Z,16.27
2022-11-26T01:56:51.145Z,13.07
2022-11-26T01:59:24.591Z,12.80
2022-11-26T02:01:56.262Z,12.67
2022-11-26T02:04:28.164Z,13.37
2022-11-26T02:06:57.724Z,14.53
2022-11-26T02:09:27.133Z,12.93
2022-11-26T02:11:55.911Z,16.47
2022-11-26T02:14:27.079Z,10.83
2022-11-26T02:17:25.576Z,17.50
2022-11-26T02:20:26.582Z,13.77
2022-11-26T02:23:23.461Z,15.93
2022-11-26T02:26:20.356Z,8.63
2022-11-26T02:29:03.768Z,14.13
2022-11-26T02:31:38.994Z,15.43
2022-11-26T02:34:14.429Z,13.90
2022-11-26T02:36:49.354Z,13.83
2022-11-26T02:39:19.363Z,11.57
2022-11-26T02:41:50.073Z,13.67
2022-11-26T02:44:22.970Z,13.27
2022-11-26T02:46:57.444Z,13.97
2022-11-26T02:49:27.067Z,14.53
2022-11-26T02:51:58.872Z,12.47
2022-11-26T02:54:29.076Z,12.40
2022-11-26T02:56:58.224Z,9.53
2022-11-26T02:59:26.869Z,9.97
2022-11-26T03:02:00.493Z,10.37
2022-11-26T03:04:34.485Z,16.27
2022-11-26T03:07:05.545Z,10.00
2022-11-26T03:09:41.255Z,9.27
2022-11-26T03:12:09.655Z,11.47
2022-11-26T03:14:38.176Z,23.40
2022-11-26T03:17:08.229Z,12.53
2022-11-26T03:19:36.489Z,8.97
2022-11-26T03:22:05.012Z,12.90
2022-11-26T03:24:33.596Z,10.70
2022-11-26T03:27:01.808Z,15.37
2022-11-26T03:29:30.137Z,14.33
2022-11-26T03:31:58.837Z,12.63
2022-11-26T03:34:28.541Z,15.00
2022-11-26T03:36:56.821Z,10.87
2022-11-26T03:39:25.098Z,10.93
2022-11-26T03:41:53.427Z,13.80
2022-11-26T03:44:21.741Z,12.17
2022-11-26T03:46:49.894Z,9.57
2022-11-26T03:49:18.152Z,21.90
2022-11-26T03:51:47.638Z,8.73
2022-11-26T03:54:16.025Z,10.10
2022-11-26T03:56:44.291Z,12.43
2022-11-26T03:59:12.535Z,12.80
2022-11-26T04:01:41.001Z,13.13
2022-11-26T04:04:09.248Z,9.90
2022-11-26T04:06:37.647Z,13.53
2022-11-26T04:09:07.483Z,18.03
2022-11-26T04:11:35.786Z,15.90
2022-11-26T04:14:04.176Z,17.30
2022-11-26T04:16:32.564Z,7.90
2022-11-26T04:19:00.842Z,11.00
2022-11-26T04:21:29.001Z,11.43
2022-11-26T04:23:57.143Z,15.60
2022-11-26T04:26:26.782Z,18.23
2022-11-26T04:28:54.985Z,12.90
2022-11-26T04:31:23.445Z,14.50
2022-11-26T04:33:51.696Z,32.37
2022-11-26T04:36:19.956Z,33.13
2022-11-26T04:38:48.406Z,18.20
2022-11-26T04:41:16.683Z,44.87
2022-11-26T04:43:46.314Z,23.40
2022-11-26T04:46:14.589Z,17.00
2022-11-26T04:48:43.059Z,14.27
2022-11-26T04:51:11.402Z,13.33
2022-11-26T04:53:39.674Z,11.97
2022-11-26T04:56:08.444Z,12.27
2022-11-26T04:58:36.899Z,10.63
2022-11-26T05:01:07.153Z,10.50
2022-11-26T05:03:36.257Z,9.50
2022-11-26T05:06:04.644Z,7.90
2022-11-26T05:08:32.912Z,7.53
2022-11-26T05:11:03.080Z,12.77
2022-11-26T05:13:31.243Z,9.33
2022-11-26T05:15:59.419Z,13.20
2022-11-26T05:18:29.005Z,13.27
2022-11-26T05:20:57.618Z,10.20
2022-11-26T05:23:26.003Z,11.90
2022-11-26T05:25:54.269Z,11.20
2022-11-26T05:28:22.469Z,9.70
2022-11-26T05:30:50.875Z,12.70
2022-11-26T05:33:19.084Z,11.73
2022-11-26T05:35:48.808Z,12.83
2022-11-26T05:38:17.237Z,8.90
2022-11-26T05:40:45.589Z,14.13
2022-11-26T05:43:14.199Z,20.20
2022-11-26T05:45:42.845Z,15.60
2022-11-26T05:48:11.295Z,12.53
2022-11-26T05:50:39.668Z,10.90
2022-11-26T05:53:09.309Z,8.10
2022-11-26T05:55:37.518Z,8.47
2022-11-26T05:58:05.909Z,9.00
2022-11-26T06:00:34.133Z,8.00
2022-11-26T06:03:02.494Z,8.33
2022-11-26T06:05:30.748Z,9.53
2022-11-26T06:07:59.082Z,9.17
2022-11-26T06:10:28.760Z,8.87
2022-11-26T06:12:56.917Z,13.23
2022-11-26T06:15:25.177Z,9.83
2022-11-26T06:17:53.486Z,11.93
2022-11-26T06:20:21.690Z,12.10
2022-11-26T06:22:49.927Z,13.70
2022-11-26T06:25:18.355Z,12.60
2022-11-26T06:27:47.953Z,10.07
2022-11-26T06:30:16.482Z,11.67
2022-11-26T06:32:44.849Z,7.80
2022-11-26T06:35:13.100Z,10.47
2022-11-26T06:37:41.431Z,14.20
2022-11-26T06:40:16.393Z,13.40
2022-11-26T06:42:50.989Z,16.27
2022-11-26T06:45:19.440Z,157.30
2022-11-26T06:47:48.312Z,142.37
2022-11-26T06:50:17.403Z,48.47
2022-11-26T06:52:45.695Z,21.10
2022-11-26T06:55:16.238Z,20.00
2022-11-26T06:57:44.494Z,14.97
2022-11-26T07:00:15.212Z,13.13
2022-11-26T07:02:43.575Z,12.63
2022-11-26T07:05:11.886Z,14.27
2022-11-26T07:07:40.676Z,12.77
2022-11-26T07:10:09.888Z,9.20
2022-11-26T07:12:38.294Z,9.60
2022-11-26T07:15:07.386Z,15.40
2022-11-26T07:17:36.955Z,13.70
2022-11-26T07:20:06.073Z,14.33
2022-11-26T07:22:35.817Z,11.10
2022-11-26T07:25:08.085Z,12.27
2022-11-26T07:27:39.475Z,12.37
2022-11-26T07:30:09.138Z,9.97
2022-11-26T07:32:38.795Z,12.03
2022-11-26T07:35:07.645Z,8.37
2022-11-26T07:37:36.302Z,14.73
2022-11-26T07:40:05.828Z,10.30
2022-11-26T07:42:34.711Z,9.63
2022-11-26T07:45:03.821Z,50.10
2022-11-26T07:47:32.233Z,56.80
2022-11-26T07:50:01.982Z,25.50
2022-11-26T07:52:33.132Z,15.37
2022-11-26T07:55:01.380Z,15.13
2022-11-26T07:57:29.775Z,14.60
2022-11-26T07:59:58.114Z,9.77
2022-11-26T08:02:26.475Z,9.27
2022-11-26T08:04:54.730Z,10.00
2022-11-26T08:07:28.987Z,12.30
2022-11-26T08:09:57.983Z,11.23
2022-11-26T08:12:26.828Z,7.63
2022-11-26T08:14:55.145Z,11.47
2022-11-26T08:17:23.524Z,10.37
2022-11-26T08:19:51.842Z,8.60
2022-11-26T08:22:20.123Z,10.13
2022-11-26T08:24:50.840Z,11.47
2022-11-26T08:27:19.299Z,9.67
2022-11-26T08:29:47.602Z,8.67
2022-11-26T08:32:15.984Z,19.00
2022-11-26T08:34:44.407Z,13.30
2022-11-26T08:37:12.798Z,12.33
2022-11-26T08:39:41.189Z,12.50
2022-11-26T08:42:11.074Z,13.20
2022-11-26T08:44:39.653Z,9.50
2022-11-26T08:47:08.354Z,12.47
2022-11-26T08:49:36.987Z,10.60
2022-11-26T08:52:05.621Z,11.30
2022-11-26T08:54:34.055Z,8.67
2022-11-26T08:57:02.463Z,10.20
2022-11-26T08:59:32.038Z,9.50
2022-11-26T09:02:00.389Z,8.00
2022-11-26T09:04:28.671Z,7.40
2022-11-26T09:06:57.074Z,8.37
2022-11-26T09:09:25.442Z,10.87
2022-11-26T09:11:57.790Z,10.90
2022-11-26T09:14:29.002Z,13.27
2022-11-26T09:16:59.614Z,15.97
2022-11-26T09:19:29.368Z,12.70
2022-11-26T09:21:57.679Z,13.33
2022-11-26T09:24:26.234Z,13.57
2022-11-26T09:26:54.843Z,10.50
2022-11-26T09:29:24.701Z,9.43
2022-11-26T09:32:23.665Z,8.90
2022-11-26T09:34:43.279Z,13.20
2022-11-26T09:37:11.625Z,11.83
2022-11-26T09:39:40.139Z,11.10
2022-11-26T09:42:10.399Z,10.70
2022-11-26T09:44:57.107Z,9.70
2022-11-26T09:47:27.972Z,52.37
2022-11-26T09:50:08.452Z,88.13
2022-11-26T09:52:41.223Z,63.63
2022-11-26T09:55:18.646Z,29.43
2022-11-26T09:57:55.479Z,17.07
2022-11-26T10:00:28.135Z,11.43
2022-11-26T10:02:58.323Z,13.00
2022-11-26T10:05:43.622Z,8.50
2022-11-26T10:08:30.705Z,7.67
2022-11-26T10:11:07.532Z,10.90
2022-11-26T10:13:45.577Z,5.97
2022-11-26T10:16:26.137Z,10.47
2022-11-26T10:19:03.808Z,9.97
2022-11-26T10:21:58.067Z,7.83
2022-11-26T10:24:31.276Z,9.63
2022-11-26T10:27:02.775Z,7.00
2022-11-26T10:29:39.451Z,7.77
2022-11-26T10:32:19.705Z,7.53
2022-11-26T10:34:52.164Z,4.70
2022-11-26T10:37:24.179Z,5.07
2022-11-26T10:40:01.043Z,8.10
2022-11-26T10:42:42.361Z,6.63
2022-11-26T10:45:20.275Z,12.43
2022-11-26T10:47:48.727Z,6.10
2022-11-26T10:53:22.638Z,64.70
2022-11-26T10:55:53.093Z,35.03
2022-11-26T10:58:25.210Z,25.53
2022-11-26T11:01:00.596Z,20.77
2022-11-26T11:04:06.746Z,13.30
2022-11-26T11:06:39.589Z,7.53
2022-11-26T11:09:31.652Z,7.60
2022-11-26T11:12:22.835Z,8.30
2022-11-26T11:14:52.144Z,10.07
2022-11-26T11:17:31.772Z,10.27
2022-11-26T11:20:04.924Z,11.00
2022-11-26T11:22:33.358Z,7.90
2022-11-26T11:25:03.160Z,12.43
2022-11-26T11:27:40.410Z,7.40
2022-11-26T11:30:25.724Z,10.73
2022-11-26T11:32:57.940Z,8.07
2022-11-26T11:35:30.324Z,8.80
2022-11-26T11:38:00.407Z,5.47
2022-11-26T11:40:33.342Z,5.77
2022-11-26T11:43:04.245Z,15.23
2022-11-26T11:45:35.462Z,7.80
2022-11-26T11:48:15.672Z,10.33
2022-11-26T11:50:50.226Z,8.90
2022-11-26T11:53:32.178Z,9.50
2022-11-26T11:56:23.974Z,7.43
2022-11-26T11:59:36.134Z,10.50
2022-11-26T12:02:32.157Z,7.13
2022-11-26T12:05:09.293Z,11.53
2022-11-26T12:07:40.336Z,8.20
2022-11-26T12:10:20.345Z,6.87
2022-11-26T12:12:52.952Z,8.13
2022-11-26T12:15:28.143Z,10.40
2022-11-26T12:18:01.741Z,9.77
2022-11-26T12:20:35.587Z,7.17
2022-11-26T12:23:25.124Z,16.27
2022-11-26T12:25:57.912Z,6.80
2022-11-26T12:28:30.385Z,16.60
2022-11-26T12:31:04.056Z,17.20
2022-11-26T12:33:35.920Z,66.87
2022-11-26T12:36:15.574Z,62.00
2022-11-26T12:38:48.443Z,47.90
2022-11-26T12:41:21.320Z,32.27
2022-11-26T12:43:59.412Z,28.73
2022-11-26T12:46:34.751Z,16.10
2022-11-26T12:49:11.222Z,14.80
2022-11-26T12:51:45.587Z,14.37
2022-11-26T12:54:19.460Z,10.03
2022-11-26T12:56:57.914Z,8.70
2022-11-26T12:59:32.394Z,16.10
2022-11-26T13:02:01.822Z,7.63
2022-11-26T13:04:37.750Z,10.47
2022-11-26T13:07:19.590Z,11.23
2022-11-26T13:10:00.202Z,8.27
2022-11-26T13:12:37.151Z,9.03
2022-11-26T13:15:15.496Z,11.60
2022-11-26T13:17:45.677Z,10.10
2022-11-26T13:20:40.026Z,7.63
2022-11-26T13:23:24.482Z,6.27
2022-11-26T13:26:24.696Z,15.23
2022-11-26T13:29:12.784Z,32.07
2022-11-26T13:32:00.280Z,26.93
2022-11-26T13:34:53.928Z,22.70
2022-11-26T13:37:35.652Z,14.00
2022-11-26T13:40:24.267Z,15.40
2022-11-26T13:43:27.580Z,9.37
2022-11-26T13:46:08.259Z,11.20
2022-11-26T13:48:46.202Z,7.30
2022-11-26T13:51:25.477Z,4.43
2022-11-26T13:53:57.754Z,9.33
2022-11-26T13:56:32.347Z,11.13
2022-11-26T13:59:03.945Z,6.77
2022-11-26T14:01:37.239Z,10.83
2022-11-26T14:04:09.180Z,6.43
2022-11-26T14:06:38.130Z,8.53
2022-11-26T14:09:06.983Z,6.10
2022-11-26T14:11:57.104Z,8.23
2022-11-26T14:14:36.917Z,6.33
2022-11-26T14:17:20.329Z,7.50
2022-11-26T14:20:17.164Z,6.33
2022-11-26T14:22:45.377Z,7.47
2022-11-26T14:25:14.425Z,9.50
2022-11-26T14:27:50.741Z,5.13
2022-11-26T14:30:25.519Z,6.30
2022-11-26T14:33:10.512Z,5.90
2022-11-26T14:35:41.178Z,5.13
2022-11-26T14:38:25.151Z,5.10
2022-11-26T14:41:00.609Z,6.53
2022-11-26T14:43:29.885Z,7.83
2022-11-26T14:46:10.568Z,6.50
2022-11-26T14:48:44.511Z,5.80
2022-11-26T14:51:20.154Z,7.10
2022-11-26T14:53:49.950Z,4.10
2022-11-26T14:56:20.184Z,7.10
2022-11-26T14:58:51.510Z,11.67
2022-11-26T15:01:22.833Z,5.97
2022-11-26T15:04:00.724Z,4.83
2022-11-26T15:06:35.012Z,9.20
2022-11-26T15:09:09.015Z,41.10
2022-11-26T15:11:39.675Z,44.33
2022-11-26T15:14:13.301Z,32.23
2022-11-26T15:16:42.810Z,16.97
2022-11-26T15:19:16.173Z,11.13
2022-11-26T15:21:45.921Z,11.33
2022-11-26T15:24:17.133Z,10.57
2022-11-26T15:26:47.536Z,5.80
2022-11-26T15:29:31.942Z,5.33
2022-11-26T15:32:00.734Z,6.50
2022-11-26T15:34:30.332Z,9.50
2022-11-26T15:37:00.276Z,9.33
2022-11-26T15:39:30.826Z,13.23
2022-11-26T15:42:03.960Z,11.63
2022-11-26T15:44:40.605Z,11.33
2022-11-26T15:47:20.240Z,6.70
2022-11-26T15:49:52.760Z,8.63
2022-11-26T15:52:25.954Z,8.20
2022-11-26T15:55:16.570Z,8.27
2022-11-26T15:57:49.282Z,5.90
2022-11-26T16:00:23.449Z,5.97
2022-11-26T16:02:52.874Z,4.50
2022-11-26T16:05:28.912Z,7.50
2022-11-26T16:08:01.575Z,10.13
2022-11-26T16:10:35.476Z,6.53
2022-11-26T16:13:22.815Z,7.50
2022-11-26T16:15:55.823Z,11.70
2022-11-26T16:18:27.007Z,6.70
2022-11-26T16:21:04.551Z,8.63
2022-11-26T16:23:34.647Z,12.43
2022-11-26T16:26:16.367Z,16.57
2022-11-26T16:28:46.008Z,14.97
2022-11-26T16:31:14.704Z,18.27
2022-11-26T16:33:43.886Z,13.77
2022-11-26T16:36:23.983Z,13.60
2022-11-26T16:38:54.209Z,13.23
2022-11-26T16:41:23.565Z,12.20
2022-11-26T16:43:51.959Z,8.23
2022-11-26T16:46:23.463Z,8.30
2022-11-26T16:48:52.027Z,7.10
2022-11-26T16:51:20.981Z,8.00
2022-11-26T16:53:49.271Z,6.53
2022-11-26T16:56:23.344Z,8.07
2022-11-26T16:58:52.475Z,4.93
2022-11-26T17:01:21.211Z,6.60
2022-11-26T17:03:49.499Z,7.67
2022-11-26T17:06:24.043Z,6.40
2022-11-26T17:08:53.060Z,9.20
2022-11-26T17:11:23.254Z,62.23
2022-11-26T17:13:51.617Z,41.93
2022-11-26T17:16:21.759Z,28.40
2022-11-26T17:18:51.941Z,17.63
2022-11-26T17:21:20.258Z,20.57
2022-11-26T17:23:48.530Z,12.27
2022-11-26T17:26:23.722Z,9.97
2022-11-26T17:28:52.573Z,10.37
2022-11-26T17:31:20.873Z,10.60
2022-11-26T17:33:50.634Z,8.33
2022-11-26T17:36:21.540Z,7.80
2022-11-26T17:38:50.188Z,8.83
2022-11-26T17:41:19.064Z,6.87
2022-11-26T17:43:48.626Z,8.87
2022-11-26T17:46:19.419Z,6.97
2022-11-26T17:48:48.508Z,7.70
2022-11-26T17:51:17.234Z,5.40
2022-11-26T17:53:45.794Z,7.50
2022-11-26T17:56:18.803Z,5.93
2022-11-26T17:58:48.540Z,7.60
2022-11-26T18:01:17.936Z,6.17
2022-11-26T18:03:47.240Z,7.23
2022-11-26T18:06:17.524Z,9.50
2022-11-26T18:08:46.325Z,8.83
2022-11-26T18:11:16.474Z,7.83
2022-11-26T18:13:45.258Z,11.93
2022-11-26T18:16:14.984Z,9.80
2022-11-26T18:18:43.338Z,8.70
2022-11-26T18:21:13.068Z,8.57
2022-11-26T18:23:47.708Z,7.60
2022-11-26T18:26:18.579Z,9.90
2022-11-26T18:28:46.781Z,9.10
2022-11-26T18:31:16.358Z,7.10
2022-11-26T18:33:44.652Z,9.67
2022-11-26T18:36:13.342Z,11.33
2022-11-26T18:38:41.708Z,8.80
2022-11-26T18:41:10.229Z,9.37
2022-11-26T18:43:39.964Z,7.87
2022-11-26T18:46:15.918Z,9.17
2022-11-26T18:48:46.956Z,9.07
2022-11-26T18:51:16.131Z,10.00
2022-11-26T18:53:45.035Z,8.70
2022-11-26T18:56:15.882Z,16.73
2022-11-26T18:58:44.955Z,6.70
2022-11-26T19:01:14.715Z,34.70
2022-11-26T19:03:44.255Z,52.93
2022-11-26T19:06:16.797Z,25.10
2022-11-26T19:08:45.899Z,16.90
2022-11-26T19:11:17.898Z,12.20
2022-11-26T19:13:46.322Z,12.20
2022-11-26T19:16:17.105Z,7.73
2022-11-26T19:18:46.264Z,6.53
2022-11-26T19:21:23.197Z,11.20
2022-11-26T19:23:52.212Z,9.10
2022-11-26T19:26:21.659Z,7.70
2022-11-26T19:28:50.185Z,9.77
2022-11-26T19:31:21.076Z,9.73
2022-11-26T19:33:54.286Z,7.77
2022-11-26T19:36:24.164Z,10.10
2022-11-26T19:38:56.088Z,9.30
2022-11-26T19:41:25.915Z,8.40
2022-11-26T19:43:55.183Z,10.30
2022-11-26T19:46:25.097Z,10.47
2022-11-26T19:48:54.397Z,5.60
2022-11-26T19:51:26.328Z,9.83
2022-11-26T19:53:56.249Z,8.47
2022-11-26T19:56:26.735Z,8.43
2022-11-26T19:58:57.741Z,10.57
2022-11-26T20:01:30.468Z,11.53
2022-11-26T20:04:00.008Z,8.70
2022-11-26T20:06:31.158Z,11.40
2022-11-26T20:08:59.784Z,11.23
2022-11-26T20:11:29.441Z,13.30
2022-11-26T20:13:58.789Z,10.90
2022-11-26T20:16:29.392Z,15.27
2022-11-26T20:18:58.557Z,12.53
2022-11-26T20:21:31.709Z,11.33
2022-11-26T20:24:01.887Z,13.20
2022-11-26T20:26:32.733Z,12.53
2022-11-26T20:29:02.847Z,12.23
2022-11-26T20:31:31.521Z,10.93
2022-11-26T20:34:02.163Z,9.70
2022-11-26T20:36:32.322Z,8.20
2022-11-26T20:39:02.699Z,7.70
2022-11-26T20:41:31.907Z,5.80
2022-11-26T20:44:00.547Z,11.20
2022-11-26T20:46:29.269Z,12.77
2022-11-26T20:48:57.957Z,10.20
2022-11-26T20:51:26.590Z,8.53
2022-11-26T20:53:59.676Z,7.90
2022-11-26T20:56:29.136Z,10.33
2022-11-26T20:58:57.635Z,5.83
2022-11-26T21:01:28.361Z,8.90
2022-11-26T21:03:58.196Z,12.23
2022-11-26T21:06:30.427Z,9.37
2022-11-26T21:09:01.877Z,5.00
2022-11-26T21:11:31.511Z,12.13
2022-11-26T21:14:01.832Z,7.50
2022-11-26T21:16:30.880Z,9.23
2022-11-26T21:19:00.008Z,9.27
2022-11-26T21:21:29.633Z,9.30
2022-11-26T21:24:04.727Z,11.77
2022-11-26T21:26:33.700Z,7.97
2022-11-26T21:29:03.496Z,8.47
2022-11-26T21:31:33.088Z,7.33
2022-11-26T21:34:02.895Z,9.27
2022-11-26T21:36:33.570Z,11.80
2022-11-26T21:39:04.317Z,9.23
2022-11-26T21:41:33.605Z,10.73
2022-11-26T21:44:04.032Z,12.10
2022-11-26T21:46:37.934Z,8.80
2022-11-26T21:49:07.580Z,8.50
2022-11-26T21:51:35.905Z,8.80
2022-11-26T21:54:06.002Z,8.30
2022-11-26T21:56:34.483Z,8.87
2022-11-26T21:59:03.165Z,9.13
2022-11-26T22:01:33.255Z,8.00
2022-11-26T22:04:03.229Z,7.17
2022-11-26T22:06:31.832Z,10.13
2022-11-26T22:09:00.625Z,8.80
2022-11-26T22:11:32.023Z,5.40
2022-11-26T22:14:00.348Z,9.60
2022-11-26T22:16:30.385Z,8.43
2022-11-26T22:19:00.324Z,9.80
2022-11-26T22:21:30.797Z,7.80
2022-11-26T22:24:00.392Z,9.17
2022-11-26T22:26:31.814Z,9.47
2022-11-26T22:29:01.073Z,8.70
2022-11-26T22:31:31.492Z,7.40
2022-11-26T22:34:01.699Z,8.73
2022-11-26T22:36:30.225Z,7.17
2022-11-26T22:38:59.545Z,7.20
2022-11-26T22:41:29.479Z,8.43
2022-11-26T22:44:00.101Z,12.57
2022-11-26T22:46:28.517Z,6.80
2022-11-26T22:48:58.440Z,9.53
2022-11-26T22:51:28.848Z,11.27
2022-11-26T22:53:58.544Z,7.83
2022-11-26T22:56:27.752Z,9.20
2022-11-26T22:58:57.579Z,7.17
2022-11-26T23:01:28.091Z,8.23
2022-11-26T23:03:57.708Z,7.33
2022-11-26T23:06:29.189Z,8.40
2022-11-26T23:08:58.844Z,7.57
2022-11-26T23:11:30.551Z,10.97
2022-11-26T23:14:02.092Z,9.10
2022-11-26T23:16:30.643Z,9.80
2022-11-26T23:18:59.052Z,6.13
2022-11-26T23:21:28.877Z,8.87
2022-11-26T23:23:57.700Z,7.53
2022-11-26T23:26:28.821Z,10.80
2022-11-26T23:28:59.370Z,9.37
2022-11-26T23:31:29.980Z,8.67
2022-11-26T23:33:58.713Z,7.03
2022-11-26T23:36:28.604Z,8.03
2022-11-26T23:38:57.480Z,11.10
2022-11-26T23:41:25.716Z,10.60
2022-11-26T23:43:53.999Z,9.07
2022-11-26T23:46:26.354Z,10.97
2022-11-26T23:48:55.079Z,9.93
2022-11-26T23:51:25.997Z,5.90
2022-11-26T23:53:54.848Z,8.90
2022-11-26T23:56:25.017Z,6.20
2022-11-26T23:58:54.562Z,7.27
